sensor_id;sensor_type;location;lat;lon;timestamp;pressure;altitude;pressure_sealevel;temperature;humidity
60371;BME280;48550;40.588;49.684;2023-03-21T00:01:55;101246.84;;;8.60;100.00
60371;BME280;48550;40.588;49.684;2023-03-21T00:04:25;101252.19;;;8.67;100.00
60371;BME280;48550;40.588;49.684;2023-03-21T00:06:52;101254.47;;;8.70;100.00
60371;BME280;48550;40.588;49.684;2023-03-21T00:09:18;101250.34;;;8.94;100.00
60371;BME280;48550;40.588;49.684;2023-03-21T00:11:44;101240.03;;;9.04;100.00
60371;BME280;48550;40.588;49.684;2023-03-21T00:14:11;101233.63;;;8.91;100.00
60371;BME280;48550;40.588;49.684;2023-03-21T00:16:40;101237.13;;;9.12;100.00
60371;BME280;48550;40.588;49.684;2023-03-21T00:19:06;101244.34;;;8.98;100.00
60371;BME280;48550;40.588;49.684;2023-03-21T00:21:34;101237.16;;;8.92;100.00
60371;BME280;48550;40.588;49.684;2023-03-21T00:24:04;101236.75;;;8.82;100.00
60371;BME280;48550;40.588;49.684;2023-03-21T00:26:31;101241.69;;;8.98;100.00
60371;BME280;48550;40.588;49.684;2023-03-21T00:28:57;101236.13;;;8.67;100.00
60371;BME280;48550;40.588;49.684;2023-03-21T00:31:24;101247.47;;;8.55;100.00
60371;BME280;48550;40.588;49.684;2023-03-21T00:33:50;101246.81;;;8.86;100.00
60371;BME280;48550;40.588;49.684;2023-03-21T00:36:15;101248.47;;;8.74;100.00
60371;BME280;48550;40.588;49.684;2023-03-21T00:38:42;101245.00;;;8.60;100.00
60371;BME280;48550;40.588;49.684;2023-03-21T00:41:10;101249.13;;;8.56;100.00
60371;BME280;48550;40.588;49.684;2023-03-21T00:43:37;101249.50;;;8.73;100.00
60371;BME280;48550;40.588;49.684;2023-03-21T00:46:03;101245.38;;;8.84;100.00
60371;BME280;48550;40.588;49.684;2023-03-21T00:48:29;101241.91;;;8.77;100.00
60371;BME280;48550;40.588;49.684;2023-03-21T00:50:56;101234.06;;;8.75;100.00
60371;BME280;48550;40.588;49.684;2023-03-21T00:53:24;101235.53;;;8.71;100.00
60371;BME280;48550;40.588;49.684;2023-03-21T00:55:49;101240.47;;;8.74;100.00
60371;BME280;48550;40.588;49.684;2023-03-21T00:58:16;101240.47;;;8.68;100.00
60371;BME280;48550;40.588;49.684;2023-03-21T01:00:42;101245.19;;;8.72;100.00
60371;BME280;48550;40.588;49.684;2023-03-21T01:03:15;101248.28;;;8.69;100.00
60371;BME280;48550;40.588;49.684;2023-03-21T01:05:46;101247.88;;;8.72;100.00
60371;BME280;48550;40.588;49.684;2023-03-21T01:08:28;101250.75;;;8.57;100.00
60371;BME280;48550;40.588;49.684;2023-03-21T01:10:55;101256.94;;;8.51;100.00
60371;BME280;48550;40.588;49.684;2023-03-21T01:13:23;101262.69;;;8.55;100.00
60371;BME280;48550;40.588;49.684;2023-03-21T01:15:52;101256.53;;;8.54;100.00
60371;BME280;48550;40.588;49.684;2023-03-21T01:18:21;101256.31;;;8.63;100.00
60371;BME280;48550;40.588;49.684;2023-03-21T01:20:47;101255.28;;;8.70;100.00
60371;BME280;48550;40.588;49.684;2023-03-21T01:23:14;101262.06;;;8.73;100.00
60371;BME280;48550;40.588;49.684;2023-03-21T01:25:41;101264.53;;;8.68;100.00
60371;BME280;48550;40.588;49.684;2023-03-21T01:28:07;101267.22;;;8.54;100.00
60371;BME280;48550;40.588;49.684;2023-03-21T01:30:33;101262.69;;;8.75;100.00
60371;BME280;48550;40.588;49.684;2023-03-21T01:32:58;101270.09;;;8.86;100.00
60371;BME280;48550;40.588;49.684;2023-03-21T01:35:24;101273.19;;;8.96;100.00
60371;BME280;48550;40.588;49.684;2023-03-21T01:37:50;101277.09;;;8.87;100.00
60371;BME280;48550;40.588;49.684;2023-03-21T01:40:21;101281.84;;;8.98;100.00
60371;BME280;48550;40.588;49.684;2023-03-21T01:42:47;101287.38;;;8.83;100.00
60371;BME280;48550;40.588;49.684;2023-03-21T01:48:38;101270.72;;;8.62;100.00
60371;BME280;48550;40.588;49.684;2023-03-21T01:51:05;101279.16;;;8.72;100.00
60371;BME280;48550;40.588;49.684;2023-03-21T01:53:33;101284.50;;;8.85;100.00
60371;BME280;48550;40.588;49.684;2023-03-21T01:56:13;101291.50;;;8.99;100.00
60371;BME280;48550;40.588;49.684;2023-03-21T01:58:42;101287.81;;;8.94;100.00
60371;BME280;48550;40.588;49.684;2023-03-21T02:01:09;101290.69;;;9.05;100.00
60371;BME280;48550;40.588;49.684;2023-03-21T02:03:39;101294.59;;;8.96;100.00
60371;BME280;48550;40.588;49.684;2023-03-21T02:06:21;101298.91;;;8.84;100.00
60371;BME280;48550;40.588;49.684;2023-03-21T02:08:48;101298.50;;;8.87;100.00
60371;BME280;48550;40.588;49.684;2023-03-21T02:11:15;101301.38;;;8.85;100.00
60371;BME280;48550;40.588;49.684;2023-03-21T02:13:41;101292.97;;;8.95;100.00
60371;BME280;48550;40.588;49.684;2023-03-21T02:16:18;101297.66;;;9.19;100.00
60371;BME280;48550;40.588;49.684;2023-03-21T02:19:44;101291.91;;;9.09;100.00
60371;BME280;48550;40.588;49.684;2023-03-21T02:22:18;101302.19;;;9.12;100.00
60371;BME280;48550;40.588;49.684;2023-03-21T02:27:29;101294.13;;;9.26;100.00
60371;BME280;48550;40.588;49.684;2023-03-21T02:38:09;101311.06;;;8.80;100.00
60371;BME280;48550;40.588;49.684;2023-03-21T02:41:04;101309.22;;;8.74;100.00
60371;BME280;48550;40.588;49.684;2023-03-21T02:46:17;101310.44;;;8.65;100.00
60371;BME280;48550;40.588;49.684;2023-03-21T02:48:55;101313.13;;;8.51;100.00
60371;BME280;48550;40.588;49.684;2023-03-21T02:51:23;101311.66;;;8.36;100.00
60371;BME280;48550;40.588;49.684;2023-03-21T02:54:04;101312.03;;;8.26;100.00
60371;BME280;48550;40.588;49.684;2023-03-21T02:56:32;101317.78;;;8.23;100.00
60371;BME280;48550;40.588;49.684;2023-03-21T02:58:59;101326.88;;;8.35;100.00
60371;BME280;48550;40.588;49.684;2023-03-21T03:01:25;101330.94;;;8.24;100.00
60371;BME280;48550;40.588;49.684;2023-03-21T03:03:53;101330.38;;;8.36;100.00
60371;BME280;48550;40.588;49.684;2023-03-21T03:06:22;101325.59;;;8.18;100.00
60371;BME280;48550;40.588;49.684;2023-03-21T03:09:06;101322.50;;;8.21;100.00
60371;BME280;48550;40.588;49.684;2023-03-21T03:11:40;101334.59;;;8.17;100.00
60371;BME280;48550;40.588;49.684;2023-03-21T03:17:16;101346.16;;;8.24;100.00
60371;BME280;48550;40.588;49.684;2023-03-21T03:22:23;101365.19;;;8.62;100.00
60371;BME280;48550;40.588;49.684;2023-03-21T03:24:58;101370.75;;;8.60;100.00
60371;BME280;48550;40.588;49.684;2023-03-21T03:27:32;101369.72;;;8.55;100.00
60371;BME280;48550;40.588;49.684;2023-03-21T03:30:01;101368.91;;;8.68;100.00
60371;BME280;48550;40.588;49.684;2023-03-21T03:32:33;101368.28;;;8.66;100.00
60371;BME280;48550;40.588;49.684;2023-03-21T03:35:00;101368.69;;;8.49;100.00
60371;BME280;48550;40.588;49.684;2023-03-21T03:37:29;101373.44;;;8.60;100.00
60371;BME280;48550;40.588;49.684;2023-03-21T03:42:50;101378.38;;;8.77;100.00
60371;BME280;48550;40.588;49.684;2023-03-21T03:45:19;101375.88;;;8.55;100.00
60371;BME280;48550;40.588;49.684;2023-03-21T03:48:06;101370.97;;;8.66;100.00
60371;BME280;48550;40.588;49.684;2023-03-21T03:50:43;101383.28;;;8.47;100.00
60371;BME280;48550;40.588;49.684;2023-03-21T03:53:28;101377.53;;;8.50;100.00
60371;BME280;48550;40.588;49.684;2023-03-21T03:55:55;101379.38;;;8.49;100.00
60371;BME280;48550;40.588;49.684;2023-03-21T03:58:23;101383.94;;;8.75;100.00
60371;BME280;48550;40.588;49.684;2023-03-21T04:00:51;101372.63;;;8.73;100.00
60371;BME280;48550;40.588;49.684;2023-03-21T04:03:17;101378.38;;;8.57;100.00
60371;BME280;48550;40.588;49.684;2023-03-21T04:05:43;101383.28;;;8.47;100.00
60371;BME280;48550;40.588;49.684;2023-03-21T04:08:12;101379.59;;;8.48;100.00
60371;BME280;48550;40.588;49.684;2023-03-21T04:10:39;101381.69;;;8.79;100.00
60371;BME280;48550;40.588;49.684;2023-03-21T04:13:05;101387.91;;;8.99;100.00
60371;BME280;48550;40.588;49.684;2023-03-21T04:15:30;101386.03;;;9.19;100.00
60371;BME280;48550;40.588;49.684;2023-03-21T04:17:56;101387.81;;;9.65;100.00
60371;BME280;48550;40.588;49.684;2023-03-21T04:20:23;101393.16;;;9.78;100.00
60371;BME280;48550;40.588;49.684;2023-03-21T04:22:48;101394.78;;;9.93;100.00
60371;BME280;48550;40.588;49.684;2023-03-21T04:25:15;101393.00;;;10.25;100.00
60371;BME280;48550;40.588;49.684;2023-03-21T04:27:41;101399.91;;;10.52;100.00
60371;BME280;48550;40.588;49.684;2023-03-21T04:30:09;101404.88;;;10.48;100.00
60371;BME280;48550;40.588;49.684;2023-03-21T04:32:37;101401.88;;;10.70;100.00
60371;BME280;48550;40.588;49.684;2023-03-21T04:35:08;101408.34;;;10.87;100.00
60371;BME280;48550;40.588;49.684;2023-03-21T04:37:35;101399.09;;;10.83;100.00
60371;BME280;48550;40.588;49.684;2023-03-21T04:40:04;101405.75;;;10.42;100.00
60371;BME280;48550;40.588;49.684;2023-03-21T04:42:32;101405.66;;;10.87;100.00
60371;BME280;48550;40.588;49.684;2023-03-21T04:44:58;101409.53;;;11.23;100.00
60371;BME280;48550;40.588;49.684;2023-03-21T04:47:24;101394.72;;;11.13;100.00
60371;BME280;48550;40.588;49.684;2023-03-21T04:49:49;101416.56;;;11.24;100.00
60371;BME280;48550;40.588;49.684;2023-03-21T04:52:16;101410.25;;;11.36;100.00
60371;BME280;48550;40.588;49.684;2023-03-21T04:54:42;101413.72;;;11.12;100.00
60371;BME280;48550;40.588;49.684;2023-03-21T04:57:08;101420.28;;;11.66;100.00
60371;BME280;48550;40.588;49.684;2023-03-21T04:59:34;101413.53;;;11.38;100.00
60371;BME280;48550;40.588;49.684;2023-03-21T05:02:00;101412.09;;;11.36;100.00
60371;BME280;48550;40.588;49.684;2023-03-21T05:04:26;101420.66;;;11.51;100.00
60371;BME280;48550;40.588;49.684;2023-03-21T05:06:53;101415.31;;;11.88;100.00
60371;BME280;48550;40.588;49.684;2023-03-21T05:09:20;101419.22;;;12.28;100.00
60371;BME280;48550;40.588;49.684;2023-03-21T05:11:47;101418.03;;;11.88;100.00
60371;BME280;48550;40.588;49.684;2023-03-21T05:14:24;101408.31;;;12.53;100.00
60371;BME280;48550;40.588;49.684;2023-03-21T05:16:51;101403.22;;;12.63;100.00
60371;BME280;48550;40.588;49.684;2023-03-21T05:19:23;101416.88;;;12.92;100.00
60371;BME280;48550;40.588;49.684;2023-03-21T05:21:49;101405.88;;;14.10;100.00
60371;BME280;48550;40.588;49.684;2023-03-21T05:24:18;101418.38;;;14.97;100.00
60371;BME280;48550;40.588;49.684;2023-03-21T05:26:45;101427.63;;;15.17;100.00
60371;BME280;48550;40.588;49.684;2023-03-21T05:29:17;101425.75;;;14.73;100.00
60371;BME280;48550;40.588;49.684;2023-03-21T05:31:43;101430.97;;;15.41;100.00
60371;BME280;48550;40.588;49.684;2023-03-21T05:34:10;101433.41;;;15.93;100.00
60371;BME280;48550;40.588;49.684;2023-03-21T05:36:37;101429.09;;;15.25;100.00
60371;BME280;48550;40.588;49.684;2023-03-21T05:39:03;101434.91;;;15.17;100.00
60371;BME280;48550;40.588;49.684;2023-03-21T05:41:29;101433.75;;;15.46;100.00
60371;BME280;48550;40.588;49.684;2023-03-21T05:43:55;101431.97;;;15.35;100.00
60371;BME280;48550;40.588;49.684;2023-03-21T05:46:20;101428.78;;;15.05;100.00
60371;BME280;48550;40.588;49.684;2023-03-21T05:48:46;101431.13;;;15.51;100.00
60371;BME280;48550;40.588;49.684;2023-03-21T05:51:12;101432.63;;;15.76;100.00
60371;BME280;48550;40.588;49.684;2023-03-21T05:53:38;101433.56;;;14.86;100.00
60371;BME280;48550;40.588;49.684;2023-03-21T05:56:04;101427.53;;;15.46;100.00
60371;BME280;48550;40.588;49.684;2023-03-21T05:58:30;101437.66;;;16.55;100.00
60371;BME280;48550;40.588;49.684;2023-03-21T06:00:56;101431.72;;;16.79;100.00
60371;BME280;48550;40.588;49.684;2023-03-21T06:03:22;101444.72;;;16.77;100.00
60371;BME280;48550;40.588;49.684;2023-03-21T06:05:47;101438.78;;;17.44;100.00
60371;BME280;48550;40.588;49.684;2023-03-21T06:08:13;101433.00;;;17.31;100.00
60371;BME280;48550;40.588;49.684;2023-03-21T06:10:39;101436.78;;;17.30;100.00
60371;BME280;48550;40.588;49.684;2023-03-21T06:13:05;101438.28;;;16.62;100.00
60371;BME280;48550;40.588;49.684;2023-03-21T06:15:31;101436.28;;;16.52;100.00
60371;BME280;48550;40.588;49.684;2023-03-21T06:17:57;101445.47;;;17.00;100.00
60371;BME280;48550;40.588;49.684;2023-03-21T06:20:22;101449.06;;;16.35;100.00
60371;BME280;48550;40.588;49.684;2023-03-21T06:22:48;101447.13;;;15.19;100.00
60371;BME280;48550;40.588;49.684;2023-03-21T06:25:14;101443.34;;;15.54;100.00
60371;BME280;48550;40.588;49.684;2023-03-21T06:27:40;101455.13;;;15.98;100.00
60371;BME280;48550;40.588;49.684;2023-03-21T06:30:06;101446.69;;;15.95;100.00
60371;BME280;48550;40.588;49.684;2023-03-21T06:32:32;101451.16;;;15.67;100.00
60371;BME280;48550;40.588;49.684;2023-03-21T06:34:58;101458.13;;;14.84;100.00
60371;BME280;48550;40.588;49.684;2023-03-21T06:37:24;101446.50;;;14.04;100.00
60371;BME280;48550;40.588;49.684;2023-03-21T06:39:51;101450.03;;;14.56;100.00
60371;BME280;48550;40.588;49.684;2023-03-21T06:42:17;101452.97;;;14.54;100.00
60371;BME280;48550;40.588;49.684;2023-03-21T06:44:42;101456.06;;;14.35;100.00
60371;BME280;48550;40.588;49.684;2023-03-21T06:47:08;101452.44;;;15.31;100.00
60371;BME280;48550;40.588;49.684;2023-03-21T06:49:34;101450.91;;;14.45;100.00
60371;BME280;48550;40.588;49.684;2023-03-21T06:52:00;101455.38;;;16.18;100.00
60371;BME280;48550;40.588;49.684;2023-03-21T06:54:25;101450.41;;;16.54;100.00
60371;BME280;48550;40.588;49.684;2023-03-21T06:56:51;101446.94;;;16.59;100.00
60371;BME280;48550;40.588;49.684;2023-03-21T06:59:18;101451.41;;;16.04;100.00
60371;BME280;48550;40.588;49.684;2023-03-21T07:01:44;101455.66;;;16.88;100.00
60371;BME280;48550;40.588;49.684;2023-03-21T07:04:10;101455.47;;;15.51;100.00
60371;BME280;48550;40.588;49.684;2023-03-21T07:06:35;101462.28;;;14.47;100.00
60371;BME280;48550;40.588;49.684;2023-03-21T07:09:02;101455.31;;;15.08;100.00
60371;BME280;48550;40.588;49.684;2023-03-21T07:11:29;101471.13;;;15.16;100.00
60371;BME280;48550;40.588;49.684;2023-03-21T07:13:56;101468.88;;;16.57;100.00
60371;BME280;48550;40.588;49.684;2023-03-21T07:16:21;101458.63;;;15.77;100.00
60371;BME280;48550;40.588;49.684;2023-03-21T07:18:49;101462.16;;;15.61;100.00
60371;BME280;48550;40.588;49.684;2023-03-21T07:21:15;101454.91;;;15.49;100.00
60371;BME280;48550;40.588;49.684;2023-03-21T07:23:41;101449.03;;;16.51;100.00
60371;BME280;48550;40.588;49.684;2023-03-21T07:26:07;101460.41;;;15.54;100.00
60371;BME280;48550;40.588;49.684;2023-03-21T07:28:33;101470.97;;;15.39;100.00
60371;BME280;48550;40.588;49.684;2023-03-21T07:31:01;101449.78;;;14.06;100.00
60371;BME280;48550;40.588;49.684;2023-03-21T07:33:29;101449.84;;;13.05;100.00
60371;BME280;48550;40.588;49.684;2023-03-21T07:35:55;101457.84;;;12.82;100.00
60371;BME280;48550;40.588;49.684;2023-03-21T07:38:23;101458.09;;;12.14;100.00
60371;BME280;48550;40.588;49.684;2023-03-21T07:40:49;101436.13;;;12.17;100.00
60371;BME280;48550;40.588;49.684;2023-03-21T07:43:15;101436.03;;;11.87;100.00
60371;BME280;48550;40.588;49.684;2023-03-21T07:45:41;101444.28;;;11.67;100.00
60371;BME280;48550;40.588;49.684;2023-03-21T07:48:08;101445.25;;;11.73;100.00
60371;BME280;48550;40.588;49.684;2023-03-21T07:50:35;101425.31;;;11.12;100.00
60371;BME280;48550;40.588;49.684;2023-03-21T07:53:01;101431.84;;;11.48;100.00
60371;BME280;48550;40.588;49.684;2023-03-21T07:55:27;101429.22;;;11.17;100.00
60371;BME280;48550;40.588;49.684;2023-03-21T07:57:52;101436.31;;;11.04;100.00
60371;BME280;48550;40.588;49.684;2023-03-21T08:00:19;101447.94;;;10.98;100.00
60371;BME280;48550;40.588;49.684;2023-03-21T08:02:52;101445.69;;;11.27;100.00
60371;BME280;48550;40.588;49.684;2023-03-21T08:05:23;101441.09;;;11.02;100.00
60371;BME280;48550;40.588;49.684;2023-03-21T08:07:50;101436.13;;;10.74;100.00
60371;BME280;48550;40.588;49.684;2023-03-21T08:10:16;101448.41;;;10.89;100.00
60371;BME280;48550;40.588;49.684;2023-03-21T08:12:43;101448.94;;;11.04;100.00
60371;BME280;48550;40.588;49.684;2023-03-21T08:15:09;101449.31;;;10.76;100.00
60371;BME280;48550;40.588;49.684;2023-03-21T08:17:35;101444.00;;;10.69;100.00
60371;BME280;48550;40.588;49.684;2023-03-21T08:20:04;101455.34;;;11.03;100.00
60371;BME280;48550;40.588;49.684;2023-03-21T08:22:36;101437.97;;;11.05;100.00
60371;BME280;48550;40.588;49.684;2023-03-21T08:25:04;101441.69;;;10.73;100.00
60371;BME280;48550;40.588;49.684;2023-03-21T08:27:31;101445.84;;;11.00;100.00
60371;BME280;48550;40.588;49.684;2023-03-21T08:29:58;101440.19;;;10.83;100.00
60371;BME280;48550;40.588;49.684;2023-03-21T08:32:24;101433.38;;;10.49;100.00
60371;BME280;48550;40.588;49.684;2023-03-21T08:34:55;101433.03;;;10.19;100.00
60371;BME280;48550;40.588;49.684;2023-03-21T08:37:23;101440.25;;;10.19;100.00
60371;BME280;48550;40.588;49.684;2023-03-21T08:39:49;101430.91;;;10.48;100.00
60371;BME280;48550;40.588;49.684;2023-03-21T08:42:16;101419.69;;;10.00;100.00
60371;BME280;48550;40.588;49.684;2023-03-21T08:44:41;101433.31;;;10.05;100.00
60371;BME280;48550;40.588;49.684;2023-03-21T08:47:07;101453.34;;;9.96;100.00
60371;BME280;48550;40.588;49.684;2023-03-21T08:49:36;101439.13;;;9.88;100.00
60371;BME280;48550;40.588;49.684;2023-03-21T08:52:02;101441.78;;;10.02;100.00
60371;BME280;48550;40.588;49.684;2023-03-21T08:54:28;101452.59;;;10.40;100.00
60371;BME280;48550;40.588;49.684;2023-03-21T08:56:53;101454.34;;;10.66;100.00
60371;BME280;48550;40.588;49.684;2023-03-21T08:59:19;101440.88;;;11.04;100.00
60371;BME280;48550;40.588;49.684;2023-03-21T09:01:45;101447.69;;;10.75;100.00
60371;BME280;48550;40.588;49.684;2023-03-21T09:04:11;101442.00;;;10.58;100.00
60371;BME280;48550;40.588;49.684;2023-03-21T09:06:38;101452.53;;;10.91;100.00
60371;BME280;48550;40.588;49.684;2023-03-21T09:09:10;101448.63;;;10.56;100.00
60371;BME280;48550;40.588;49.684;2023-03-21T09:11:37;101453.47;;;10.27;100.00
60371;BME280;48550;40.588;49.684;2023-03-21T09:14:03;101447.44;;;10.38;100.00
60371;BME280;48550;40.588;49.684;2023-03-21T09:16:29;101451.50;;;10.54;100.00
60371;BME280;48550;40.588;49.684;2023-03-21T09:18:55;101450.88;;;10.90;100.00
60371;BME280;48550;40.588;49.684;2023-03-21T09:21:24;101443.91;;;11.39;100.00
60371;BME280;48550;40.588;49.684;2023-03-21T09:23:51;101434.31;;;11.50;100.00
60371;BME280;48550;40.588;49.684;2023-03-21T09:26:22;101440.22;;;11.58;100.00
60371;BME280;48550;40.588;49.684;2023-03-21T09:28:48;101439.03;;;11.54;100.00
60371;BME280;48550;40.588;49.684;2023-03-21T09:31:16;101435.66;;;11.84;100.00
60371;BME280;48550;40.588;49.684;2023-03-21T09:33:50;101443.81;;;11.95;100.00
60371;BME280;48550;40.588;49.684;2023-03-21T09:36:17;101444.19;;;11.74;100.00
60371;BME280;48550;40.588;49.684;2023-03-21T09:38:46;101438.81;;;11.56;100.00
60371;BME280;48550;40.588;49.684;2023-03-21T09:47:30;101434.41;;;11.61;100.00
60371;BME280;48550;40.588;49.684;2023-03-21T09:52:50;101433.94;;;11.46;100.00
60371;BME280;48550;40.588;49.684;2023-03-21T09:55:45;101440.09;;;11.71;100.00
60371;BME280;48550;40.588;49.684;2023-03-21T10:00:52;101428.91;;;11.00;100.00
60371;BME280;48550;40.588;49.684;2023-03-21T10:03:23;101434.44;;;11.36;100.00
60371;BME280;48550;40.588;49.684;2023-03-21T10:05:54;101438.28;;;11.65;100.00
60371;BME280;48550;40.588;49.684;2023-03-21T10:08:30;101449.09;;;11.84;100.00
60371;BME280;48550;40.588;49.684;2023-03-21T10:11:14;101432.66;;;11.49;100.00
60371;BME280;48550;40.588;49.684;2023-03-21T10:13:54;101425.50;;;11.61;100.00
60371;BME280;48550;40.588;49.684;2023-03-21T10:16:30;101430.00;;;11.67;100.00
60371;BME280;48550;40.588;49.684;2023-03-21T10:18:59;101428.13;;;11.49;100.00
60371;BME280;48550;40.588;49.684;2023-03-21T10:21:27;101430.59;;;11.94;100.00
60371;BME280;48550;40.588;49.684;2023-03-21T10:23:55;101441.22;;;12.07;100.00
60371;BME280;48550;40.588;49.684;2023-03-21T10:26:23;101441.38;;;11.94;100.00
60371;BME280;48550;40.588;49.684;2023-03-21T10:28:51;101443.22;;;11.25;100.00
60371;BME280;48550;40.588;49.684;2023-03-21T10:31:20;101447.47;;;10.76;100.00
60371;BME280;48550;40.588;49.684;2023-03-21T10:33:50;101443.00;;;10.95;100.00
60371;BME280;48550;40.588;49.684;2023-03-21T10:36:22;101435.31;;;11.30;100.00
60371;BME280;48550;40.588;49.684;2023-03-21T10:38:55;101431.81;;;10.98;100.00
60371;BME280;48550;40.588;49.684;2023-03-21T10:41:24;101426.84;;;11.52;100.00
60371;BME280;48550;40.588;49.684;2023-03-21T10:44:10;101425.16;;;11.75;100.00
60371;BME280;48550;40.588;49.684;2023-03-21T10:46:36;101429.31;;;11.53;100.00
60371;BME280;48550;40.588;49.684;2023-03-21T10:49:06;101431.09;;;11.41;100.00
60371;BME280;48550;40.588;49.684;2023-03-21T10:51:35;101432.19;;;11.76;100.00
60371;BME280;48550;40.588;49.684;2023-03-21T10:54:07;101441.66;;;11.61;100.00
60371;BME280;48550;40.588;49.684;2023-03-21T10:56:42;101426.09;;;11.20;100.00
60371;BME280;48550;40.588;49.684;2023-03-21T10:59:17;101421.03;;;11.55;100.00
60371;BME280;48550;40.588;49.684;2023-03-21T11:01:48;101429.13;;;11.30;100.00
60371;BME280;48550;40.588;49.684;2023-03-21T11:04:35;101426.63;;;10.72;100.00
60371;BME280;48550;40.588;49.684;2023-03-21T11:07:04;101423.50;;;10.75;100.00
60371;BME280;48550;40.588;49.684;2023-03-21T11:09:44;101419.66;;;10.64;100.00
60371;BME280;48550;40.588;49.684;2023-03-21T11:12:16;101423.28;;;10.76;100.00
60371;BME280;48550;40.588;49.684;2023-03-21T11:14:47;101413.44;;;10.70;100.00
60371;BME280;48550;40.588;49.684;2023-03-21T11:19:56;101419.34;;;10.79;100.00
60371;BME280;48550;40.588;49.684;2023-03-21T11:22:26;101423.94;;;10.40;100.00
60371;BME280;48550;40.588;49.684;2023-03-21T11:24:59;101420.06;;;10.10;100.00
60371;BME280;48550;40.588;49.684;2023-03-21T11:27:30;101425.25;;;10.05;100.00
60371;BME280;48550;40.588;49.684;2023-03-21T11:29:57;101421.94;;;10.09;100.00
60371;BME280;48550;40.588;49.684;2023-03-21T11:32:36;101421.22;;;10.47;100.00
60371;BME280;48550;40.588;49.684;2023-03-21T11:35:06;101424.19;;;10.12;100.00
60371;BME280;48550;40.588;49.684;2023-03-21T11:37:39;101421.66;;;10.31;100.00
60371;BME280;48550;40.588;49.684;2023-03-21T11:40:21;101419.31;;;9.90;100.00
60371;BME280;48550;40.588;49.684;2023-03-21T11:45:58;101420.38;;;9.82;100.00
60371;BME280;48550;40.588;49.684;2023-03-21T11:48:24;101409.16;;;10.05;100.00
60371;BME280;48550;40.588;49.684;2023-03-21T11:50:58;101417.78;;;10.20;100.00
60371;BME280;48550;40.588;49.684;2023-03-21T11:58:40;101412.44;;;10.20;100.00
60371;BME280;48550;40.588;49.684;2023-03-21T12:07:38;101412.81;;;10.17;100.00
60371;BME280;48550;40.588;49.684;2023-03-21T12:09:43;101407.06;;;10.13;100.00
60371;BME280;48550;40.588;49.684;2023-03-21T12:12:34;101401.06;;;10.18;100.00
60371;BME280;48550;40.588;49.684;2023-03-21T12:15:12;101401.63;;;10.33;100.00
60371;BME280;48550;40.588;49.684;2023-03-21T12:17:49;101412.88;;;10.62;100.00
60371;BME280;48550;40.588;49.684;2023-03-21T12:20:45;101401.72;;;10.58;100.00
60371;BME280;48550;40.588;49.684;2023-03-21T12:35:24;101396.00;;;10.48;100.00
60371;BME280;48550;40.588;49.684;2023-03-21T12:37:32;101404.88;;;10.48;100.00
60371;BME280;48550;40.588;49.684;2023-03-21T12:42:58;101393.97;;;10.37;100.00
60371;BME280;48550;40.588;49.684;2023-03-21T12:45:38;101382.19;;;10.44;100.00
60371;BME280;48550;40.588;49.684;2023-03-21T12:51:06;101378.88;;;10.49;100.00
60371;BME280;48550;40.588;49.684;2023-03-21T12:53:55;101378.31;;;10.72;100.00
60371;BME280;48550;40.588;49.684;2023-03-21T12:56:39;101393.84;;;10.95;100.00
60371;BME280;48550;40.588;49.684;2023-03-21T12:59:22;101387.09;;;11.10;100.00
60371;BME280;48550;40.588;49.684;2023-03-21T13:01:54;101397.88;;;10.79;100.00
60371;BME280;48550;40.588;49.684;2023-03-21T13:07:07;101399.56;;;10.35;100.00
60371;BME280;48550;40.588;49.684;2023-03-21T13:09:39;101391.50;;;10.35;100.00
60371;BME280;48550;40.588;49.684;2023-03-21T13:15:33;101402.56;;;10.01;100.00
60371;BME280;48550;40.588;49.684;2023-03-21T13:17:41;101393.16;;;9.85;100.00
60371;BME280;48550;40.588;49.684;2023-03-21T13:22:45;101384.91;;;9.86;100.00
60371;BME280;48550;40.588;49.684;2023-03-21T13:25:20;101381.78;;;9.90;100.00
60371;BME280;48550;40.588;49.684;2023-03-21T13:28:03;101370.03;;;9.91;100.00
60371;BME280;48550;40.588;49.684;2023-03-21T13:30:33;101370.91;;;9.71;100.00
60371;BME280;48550;40.588;49.684;2023-03-21T13:33:06;101372.56;;;9.72;100.00
60371;BME280;48550;40.588;49.684;2023-03-21T13:35:37;101382.47;;;9.65;100.00
60371;BME280;48550;40.588;49.684;2023-03-21T13:41:13;101393.59;;;9.55;100.00
60371;BME280;48550;40.588;49.684;2023-03-21T13:43:54;101371.38;;;9.48;100.00
60371;BME280;48550;40.588;49.684;2023-03-21T14:02:22;101379.22;;;9.37;100.00
60371;BME280;48550;40.588;49.684;2023-03-21T14:04:55;101366.25;;;9.34;100.00
60371;BME280;48550;40.588;49.684;2023-03-21T14:07:42;101349.56;;;9.18;100.00
60371;BME280;48550;40.588;49.684;2023-03-21T14:10:27;101374.50;;;9.19;100.00
60371;BME280;48550;40.588;49.684;2023-03-21T14:12:54;101386.25;;;9.18;100.00
60371;BME280;48550;40.588;49.684;2023-03-21T14:15:23;101397.38;;;9.21;100.00
60371;BME280;48550;40.588;49.684;2023-03-21T14:17:56;101403.34;;;9.23;100.00
60371;BME280;48550;40.588;49.684;2023-03-21T14:20:40;101407.06;;;9.22;100.00
60371;BME280;48550;40.588;49.684;2023-03-21T14:23:11;101415.50;;;9.33;100.00
60371;BME280;48550;40.588;49.684;2023-03-21T14:25:39;101415.09;;;9.22;100.00